Time;durP1;ratioP1;P1;durP2;ratioP2;P2;SDS_P1;SDS_P2;PMS_P1;PMS_P2;Temp;Humidity;BMP_temperature;BMP_pressure;BME280_temperature;BME280_humidity;BME280_pressure;Samples;Min_cycle;Max_cycle;Signal;HPM_P1;HPM_P2
2021/06/21 00:00:14;;;;;;;6.70;6.00;;;19.30;99.90;;;;;;5113350;28;20194;-63
2021/06/21 00:02:40;;;;;;;7.10;6.50;;;19.20;99.90;;;;;;5113121;28;20185;-64
2021/06/21 00:05:08;;;;;;;7.10;6.50;;;19.30;99.90;;;;;;5113235;28;20495;-63
2021/06/21 00:07:33;;;;;;;8.13;7.30;;;19.30;99.90;;;;;;5112699;28;20896;-64
2021/06/21 00:09:59;;;;;;;8.03;7.33;;;19.20;99.90;;;;;;5113222;28;20483;-63
2021/06/21 00:12:24;;;;;;;6.40;5.97;;;19.30;99.90;;;;;;5112999;28;20638;-63
2021/06/21 00:14:50;;;;;;;6.10;5.50;;;19.20;99.90;;;;;;5113040;28;20167;-63
2021/06/21 00:17:16;;;;;;;6.23;5.73;;;19.20;99.90;;;;;;5112677;28;20185;-63
2021/06/21 00:19:45;;;;;;;5.97;5.60;;;19.20;99.90;;;;;;5112440;28;20192;-64
2021/06/21 00:22:14;;;;;;;5.47;5.07;;;19.20;99.90;;;;;;5112929;28;20411;-63
2021/06/21 00:24:40;;;;;;;5.50;5.20;;;19.20;99.90;;;;;;5112845;28;20818;-63
2021/06/21 00:27:05;;;;;;;8.47;6.60;;;19.20;99.90;;;;;;5112556;28;20439;-63
2021/06/21 00:29:31;;;;;;;7.17;6.57;;;19.20;99.90;;;;;;5112850;28;20170;-63
2021/06/21 00:31:56;;;;;;;7.20;6.70;;;19.20;99.90;;;;;;5112733;28;20169;-63
2021/06/21 00:34:22;;;;;;;5.67;5.23;;;19.20;99.90;;;;;;5112662;28;20173;-64
2021/06/21 00:36:48;;;;;;;7.00;6.50;;;19.20;99.90;;;;;;5112436;28;20201;-63
2021/06/21 00:39:13;;;;;;;8.53;7.80;;;19.10;99.90;;;;;;5112659;28;20701;-63
2021/06/21 00:41:39;;;;;;;6.10;5.70;;;19.20;99.90;;;;;;5112572;28;20601;-63
2021/06/21 00:44:07;;;;;;;6.83;6.23;;;19.20;99.90;;;;;;5112532;28;20219;-63
2021/06/21 00:46:32;;;;;;;7.73;6.43;;;19.20;99.90;;;;;;5112273;28;20459;-63
2021/06/21 00:48:58;;;;;;;7.13;6.43;;;19.10;99.90;;;;;;5110915;28;20518;-63
2021/06/21 00:51:24;;;;;;;7.80;7.10;;;19.00;99.90;;;;;;5112449;28;20162;-64
2021/06/21 00:53:50;;;;;;;8.47;7.87;;;19.00;99.90;;;;;;5112449;28;20164;-63
2021/06/21 00:56:16;;;;;;;8.47;7.67;;;18.80;99.90;;;;;;5112354;28;20404;-63
2021/06/21 00:58:42;;;;;;;8.80;8.00;;;18.60;99.90;;;;;;5112077;28;20427;-64
2021/06/21 01:01:08;;;;;;;11.23;8.30;;;18.50;99.90;;;;;;5112168;28;20431;-63
2021/06/21 01:03:34;;;;;;;10.40;9.60;;;18.50;99.90;;;;;;5112314;28;20407;-63
2021/06/21 01:06:01;;;;;;;7.70;7.10;;;18.50;99.90;;;;;;5112320;28;20165;-63
2021/06/21 01:08:26;;;;;;;7.03;6.43;;;18.50;99.90;;;;;;5110827;28;20995;-63
2021/06/21 01:10:55;;;;;;;8.37;7.20;;;18.50;99.90;;;;;;5112087;28;20396;-63
2021/06/21 01:13:53;;;;;;;9.73;7.17;;;18.60;99.90;;;;;;5112207;28;20169;-63
2021/06/21 01:16:30;;;;;;;7.27;6.10;;;18.60;99.90;;;;;;5111633;28;20511;-64
2021/06/21 01:19:15;;;;;;;6.60;6.20;;;18.60;99.90;;;;;;5112018;28;20461;-63
2021/06/21 01:22:18;;;;;;;7.70;6.97;;;18.60;99.90;;;;;;5112192;28;20403;-64
2021/06/21 01:25:01;;;;;;;8.73;7.53;;;18.70;99.90;;;;;;5111859;28;20405;-64
2021/06/21 01:27:30;;;;;;;7.13;6.53;;;18.70;99.90;;;;;;5111610;28;20805;-63
2021/06/21 01:30:04;;;;;;;7.00;6.33;;;18.60;99.90;;;;;;5113359;28;20404;-64
2021/06/21 01:32:49;;;;;;;7.50;6.90;;;18.60;99.90;;;;;;5116325;28;20917;-63
2021/06/21 01:35:29;;;;;;;7.03;6.43;;;18.60;99.90;;;;;;5116444;28;20482;-63
2021/06/21 01:37:58;;;;;;;8.00;7.20;;;18.60;99.90;;;;;;5115384;28;20419;-64
2021/06/21 01:40:25;;;;;;;6.80;6.30;;;18.60;99.90;;;;;;5116176;28;20401;-64
2021/06/21 01:42:55;;;;;;;7.00;6.47;;;18.60;99.90;;;;;;5115974;28;20415;-63
2021/06/21 01:45:22;;;;;;;6.20;5.80;;;18.60;99.90;;;;;;5116000;28;20388;-64
2021/06/21 01:47:51;;;;;;;7.80;7.20;;;18.60;99.90;;;;;;5115447;28;20451;-64
2021/06/21 01:50:23;;;;;;;6.93;6.43;;;18.70;99.90;;;;;;5115874;28;20953;-63
2021/06/21 01:53:01;;;;;;;8.10;7.50;;;18.60;99.90;;;;;;5115827;28;20931;-63
2021/06/21 01:55:29;;;;;;;9.53;7.47;;;18.40;99.90;;;;;;5115863;28;20532;-64
2021/06/21 01:57:56;;;;;;;7.40;6.90;;;18.40;99.90;;;;;;5114092;28;20427;-63
2021/06/21 02:00:23;;;;;;;7.80;7.23;;;18.40;99.90;;;;;;5115702;28;20399;-64
2021/06/21 02:02:50;;;;;;;9.00;8.20;;;18.40;99.90;;;;;;5115559;28;20744;-64
2021/06/21 02:05:17;;;;;;;9.70;9.00;;;18.50;99.90;;;;;;5115355;28;20410;-63
2021/06/21 02:07:45;;;;;;;8.67;7.87;;;18.30;99.90;;;;;;5115070;28;20509;-63
2021/06/21 02:10:12;;;;;;;8.37;7.67;;;18.30;99.90;;;;;;5115503;28;20410;-64
2021/06/21 02:12:39;;;;;;;9.17;8.37;;;18.40;99.90;;;;;;5115385;28;20457;-63
2021/06/21 02:15:06;;;;;;;9.50;8.70;;;18.40;99.90;;;;;;5115445;28;20482;-63
2021/06/21 02:17:32;;;;;;;9.00;8.30;;;18.40;99.90;;;;;;5114968;28;20418;-64
2021/06/21 02:19:59;;;;;;;8.10;7.40;;;18.40;99.90;;;;;;5115462;28;20412;-64
2021/06/21 02:22:29;;;;;;;8.37;7.67;;;18.40;99.90;;;;;;5115293;28;20439;-63
2021/06/21 02:24:58;;;;;;;7.53;7.03;;;18.40;99.90;;;;;;5115179;28;20995;-63
2021/06/21 02:27:24;;;;;;;8.87;7.80;;;18.40;99.90;;;;;;5114662;28;20451;-63
2021/06/21 02:29:52;;;;;;;9.40;8.50;;;18.40;99.90;;;;;;5115075;28;20898;-63
2021/06/21 02:32:19;;;;;;;9.90;9.00;;;18.40;99.90;;;;;;5115153;28;20411;-63
2021/06/21 02:34:45;;;;;;;9.07;8.27;;;18.40;99.90;;;;;;5115155;28;20815;-63
2021/06/21 02:37:11;;;;;;;8.87;8.17;;;18.40;99.90;;;;;;5114688;28;20396;-63
2021/06/21 02:39:37;;;;;;;9.20;8.30;;;18.40;99.90;;;;;;5114966;28;20256;-63
2021/06/21 02:42:04;;;;;;;8.43;7.83;;;18.30;99.90;;;;;;5114129;28;20898;-63
2021/06/21 02:44:30;;;;;;;11.40;10.23;;;18.30;99.90;;;;;;5114611;28;20403;-64
2021/06/21 02:46:56;;;;;;;9.30;8.60;;;18.20;99.90;;;;;;5114304;28;20451;-63
2021/06/21 02:49:21;;;;;;;9.53;8.73;;;18.30;99.90;;;;;;5114831;28;20644;-63
2021/06/21 02:51:54;;;;;;;10.30;9.50;;;18.30;99.90;;;;;;5114865;28;20187;-63
2021/06/21 02:54:26;;;;;;;9.93;9.13;;;18.30;99.90;;;;;;5113415;28;20162;-63
2021/06/21 02:57:00;;;;;;;12.03;11.03;;;18.30;99.90;;;;;;5114257;28;20408;-63
2021/06/21 02:59:31;;;;;;;12.67;11.77;;;18.20;99.90;;;;;;5114654;28;20776;-63
2021/06/21 03:01:57;;;;;;;9.60;8.80;;;18.20;99.90;;;;;;5114499;28;20430;-64
2021/06/21 03:04:24;;;;;;;11.27;10.27;;;18.20;99.90;;;;;;5114410;28;20915;-63
2021/06/21 03:06:51;;;;;;;10.00;9.30;;;18.10;99.90;;;;;;5114064;28;20447;-62
2021/06/21 03:09:18;;;;;;;11.87;10.87;;;18.00;99.90;;;;;;5114345;28;20415;-64
2021/06/21 03:11:50;;;;;;;12.57;11.47;;;18.00;99.90;;;;;;5114182;28;20392;-63
2021/06/21 03:14:16;;;;;;;12.10;11.10;;;18.00;99.90;;;;;;5114305;28;20911;-64
2021/06/21 03:16:43;;;;;;;11.97;10.87;;;18.10;99.90;;;;;;5113975;28;20701;-63
2021/06/21 03:19:12;;;;;;;10.10;9.40;;;18.20;99.90;;;;;;5114125;28;20426;-63
2021/06/21 03:21:41;;;;;;;11.33;10.30;;;18.20;99.90;;;;;;5113144;28;20411;-63
2021/06/21 03:24:07;;;;;;;12.37;10.17;;;18.20;99.90;;;;;;5114543;28;20411;-63
2021/06/21 03:26:32;;;;;;;11.83;10.93;;;18.20;99.90;;;;;;5113638;28;20407;-62
2021/06/21 03:28:58;;;;;;;10.73;9.63;;;18.20;99.90;;;;;;5113957;28;20415;-64
2021/06/21 03:31:25;;;;;;;10.83;9.83;;;18.10;99.90;;;;;;5113949;28;20166;-62
2021/06/21 03:33:51;;;;;;;9.47;8.77;;;18.20;99.90;;;;;;5113850;28;20165;-64
2021/06/21 03:36:16;;;;;;;9.93;9.10;;;18.10;99.90;;;;;;5113835;28;20396;-64
2021/06/21 03:38:42;;;;;;;9.20;8.40;;;18.10;99.90;;;;;;5113307;28;20433;-62
2021/06/21 03:41:09;;;;;;;7.93;7.13;;;18.10;99.90;;;;;;5113675;28;20162;-61
2021/06/21 03:43:35;;;;;;;7.03;6.50;;;18.10;99.90;;;;;;5113656;28;20414;-62
2021/06/21 03:46:05;;;;;;;7.37;5.50;;;18.00;99.90;;;;;;5113659;28;20494;-63
2021/06/21 03:48:31;;;;;;;7.23;6.53;;;18.00;99.90;;;;;;5113541;28;20454;-62
2021/06/21 03:50:58;;;;;;;7.10;6.57;;;18.10;99.90;;;;;;5113576;28;20499;-61
2021/06/21 03:53:25;;;;;;;5.80;5.30;;;18.10;99.90;;;;;;5112330;28;20415;-62
2021/06/21 03:55:51;;;;;;;4.60;4.27;;;18.10;99.90;;;;;;5113589;28;20404;-63
2021/06/21 03:58:17;;;;;;;4.20;3.83;;;18.20;99.90;;;;;;5113069;28;20804;-62
2021/06/21 04:00:44;;;;;;;5.90;3.43;;;18.00;99.90;;;;;;5113318;28;20178;-61
2021/06/21 04:03:10;;;;;;;4.63;3.80;;;18.10;99.90;;;;;;5113448;28;20265;-62
2021/06/21 04:05:37;;;;;;;3.10;2.87;;;18.00;99.90;;;;;;5113225;28;20427;-62
2021/06/21 04:08:14;;;;;;;3.20;2.30;;;17.90;99.90;;;;;;5112775;28;20209;-62
2021/06/21 04:10:41;;;;;;;3.07;2.80;;;17.90;99.90;;;;;;5113415;28;20396;-62
2021/06/21 04:13:07;;;;;;;2.93;2.73;;;17.90;99.90;;;;;;5113128;28;20400;-62
2021/06/21 04:15:33;;;;;;;3.20;2.30;;;17.80;99.90;;;;;;5113149;28;20404;-61
2021/06/21 04:18:01;;;;;;;3.33;2.33;;;17.80;99.90;;;;;;5112726;28;20430;-62
2021/06/21 04:20:29;;;;;;;2.43;2.33;;;17.90;99.90;;;;;;5112938;28;20404;-62
2021/06/21 04:22:56;;;;;;;2.30;2.20;;;17.90;99.90;;;;;;5112936;28;20407;-61
2021/06/21 04:25:22;;;;;;;2.63;2.20;;;18.00;99.90;;;;;;5113204;28;20907;-62
2021/06/21 04:27:49;;;;;;;2.60;2.40;;;17.90;99.90;;;;;;5112424;28;21060;-65
2021/06/21 04:30:19;;;;;;;2.73;2.53;;;17.90;99.90;;;;;;5112843;28;20403;-62
2021/06/21 04:32:45;;;;;;;2.73;2.43;;;17.90;99.90;;;;;;5112665;28;20438;-62
2021/06/21 04:35:17;;;;;;;2.43;2.23;;;17.90;99.90;;;;;;5112727;28;20428;-64
2021/06/21 04:37:43;;;;;;;4.50;2.37;;;18.00;99.90;;;;;;5112328;28;20190;-63
2021/06/21 04:40:13;;;;;;;3.43;2.30;;;18.00;99.90;;;;;;5112680;28;20403;-61
2021/06/21 04:42:39;;;;;;;3.00;2.53;;;18.00;99.90;;;;;;5112647;28;20166;-62
2021/06/21 04:45:06;;;;;;;5.30;3.20;;;18.00;99.90;;;;;;5112606;28;20497;-62
2021/06/21 04:47:32;;;;;;;4.47;2.77;;;18.10;99.90;;;;;;5112486;28;20505;-62
2021/06/21 04:50:03;;;;;;;4.40;2.60;;;18.10;99.90;;;;;;5112842;28;20984;-62
2021/06/21 04:52:32;;;;;;;2.40;2.20;;;18.10;99.90;;;;;;5112608;28;20170;-61
2021/06/21 04:55:01;;;;;;;2.63;2.30;;;18.00;99.90;;;;;;5112453;28;20448;-63
2021/06/21 04:57:27;;;;;;;4.67;2.77;;;18.10;99.90;;;;;;5112053;28;20446;-61
2021/06/21 04:59:53;;;;;;;3.30;2.40;;;18.10;99.90;;;;;;5112288;28;20408;-65
2021/06/21 05:02:19;;;;;;;2.50;2.30;;;18.10;99.90;;;;;;5112329;28;20427;-62
2021/06/21 05:04:44;;;;;;;2.40;2.20;;;18.10;99.90;;;;;;5112006;28;20170;-62
2021/06/21 05:07:10;;;;;;;2.73;2.60;;;18.00;99.90;;;;;;5111902;28;20280;-61
2021/06/21 05:09:35;;;;;;;2.90;2.47;;;18.10;99.90;;;;;;5112558;28;20165;-64
2021/06/21 05:12:01;;;;;;;4.27;2.50;;;18.20;99.90;;;;;;5112310;28;20198;-62
2021/06/21 05:14:27;;;;;;;2.83;2.63;;;18.30;99.90;;;;;;5112631;28;20575;-62
2021/06/21 05:16:53;;;;;;;3.93;2.73;;;18.30;99.90;;;;;;5111904;28;20178;-61
2021/06/21 05:19:18;;;;;;;2.47;2.27;;;18.50;99.90;;;;;;5112226;28;20170;-63
2021/06/21 05:21:44;;;;;;;2.60;2.40;;;18.50;99.90;;;;;;5112211;28;20573;-65
2021/06/21 05:24:09;;;;;;;3.67;3.47;;;18.40;99.90;;;;;;5112085;28;20244;-61
2021/06/21 05:26:35;;;;;;;5.43;2.70;;;18.40;99.90;;;;;;5110436;28;20598;-56
2021/06/21 05:29:01;;;;;;;2.87;2.67;;;19.30;99.90;;;;;;5111223;28;20830;-63
2021/06/21 05:31:26;;;;;;;3.43;2.37;;;20.00;99.90;;;;;;5112024;28;20528;-59
2021/06/21 05:33:52;;;;;;;7.13;2.30;;;20.40;99.90;;;;;;5111951;28;20244;-59
2021/06/21 05:36:18;;;;;;;1.90;1.80;;;21.00;99.90;;;;;;5112120;28;20170;-54
2021/06/21 05:38:44;;;;;;;4.30;1.73;;;21.50;99.90;;;;;;5111604;28;20193;-57
2021/06/21 05:41:09;;;;;;;1.83;1.73;;;21.70;99.90;;;;;;5112016;28;20223;-58
2021/06/21 05:43:35;;;;;;;6.53;2.60;;;21.70;99.90;;;;;;5111762;28;20408;-58
2021/06/21 05:46:00;;;;;;;2.20;2.10;;;21.40;99.90;;;;;;5111934;28;20178;-57
2021/06/21 05:48:26;;;;;;;2.23;2.13;;;21.60;99.90;;;;;;5111466;28;20197;-56
2021/06/21 05:50:52;;;;;;;2.10;1.80;;;21.80;99.90;;;;;;5111915;28;20743;-57
2021/06/21 05:53:17;;;;;;;2.40;1.80;;;22.00;99.90;;;;;;5111754;28;20569;-57
2021/06/21 05:55:43;;;;;;;2.20;2.00;;;21.70;99.90;;;;;;5111852;28;20215;-56
2021/06/21 05:58:09;;;;;;;2.40;2.00;;;21.70;99.90;;;;;;5111459;28;20190;-56
2021/06/21 06:00:34;;;;;;;2.23;2.03;;;21.90;99.90;;;;;;5111659;28;20489;-54
2021/06/21 06:03:00;;;;;;;1.70;1.60;;;21.70;99.90;;;;;;5111773;28;20166;-51
2021/06/21 06:05:26;;;;;;;2.20;2.10;;;21.50;99.90;;;;;;5111838;28;20162;-55
2021/06/21 06:07:52;;;;;;;1.97;1.87;;;21.50;99.90;;;;;;5111233;28;20614;-54
2021/06/21 06:10:18;;;;;;;1.70;1.60;;;21.90;99.90;;;;;;5111676;28;20162;-53
2021/06/21 06:12:44;;;;;;;1.50;1.40;;;22.20;99.90;;;;;;5111585;28;20169;-54
2021/06/21 06:15:11;;;;;;;2.17;1.90;;;22.20;99.90;;;;;;5111657;28;20395;-55
2021/06/21 06:17:37;;;;;;;2.00;1.90;;;22.50;99.90;;;;;;5113719;28;20574;-55
2021/06/21 06:20:04;;;;;;;1.70;1.60;;;22.50;99.90;;;;;;5115505;28;20410;-54
2021/06/21 06:22:30;;;;;;;1.80;1.80;;;22.70;99.90;;;;;;5115216;28;20170;-53
2021/06/21 06:24:55;;;;;;;1.40;1.40;;;22.70;99.90;;;;;;5115260;28;20535;-52
2021/06/21 06:27:21;;;;;;;1.77;1.67;;;22.80;99.90;;;;;;5114763;28;20571;-52
2021/06/21 06:29:46;;;;;;;1.57;1.57;;;22.40;99.90;;;;;;5115118;28;20201;-51
2021/06/21 06:32:12;;;;;;;1.97;1.70;;;22.50;99.90;;;;;;5115108;28;20169;-55
2021/06/21 06:34:37;;;;;;;2.40;2.30;;;22.70;99.90;;;;;;5115045;28;20162;-54
2021/06/21 06:37:04;;;;;;;2.33;2.23;;;22.80;99.90;;;;;;5114610;28;20222;-54
2021/06/21 06:39:30;;;;;;;1.87;1.77;;;22.40;99.90;;;;;;5115088;28;20173;-51
2021/06/21 06:41:56;;;;;;;3.30;3.10;;;22.40;99.90;;;;;;5115397;28;20927;-55
2021/06/21 06:44:21;;;;;;;4.57;2.37;;;22.20;99.90;;;;;;5114792;28;20176;-52
2021/06/21 06:46:47;;;;;;;5.00;2.63;;;22.00;99.90;;;;;;5114430;28;20166;-55
2021/06/21 06:49:13;;;;;;;2.10;2.00;;;22.20;99.90;;;;;;5114814;28;20186;-53
2021/06/21 06:51:48;;;;;;;2.53;2.33;;;22.50;99.90;;;;;;5114773;28;20634;-53
2021/06/21 06:57:02;;;;;;;3.00;2.90;;;22.80;99.20;;;;;;5114260;28;20934;-54
2021/06/21 06:59:35;;;;;;;2.70;2.47;;;22.80;98.40;;;;;;5114793;28;20404;-52
2021/06/21 07:02:03;;;;;;;2.10;2.00;;;22.90;98.20;;;;;;5114532;28;20472;-53
2021/06/21 07:04:31;;;;;;;1.97;1.87;;;22.90;98.10;;;;;;5114442;28;20943;-56
2021/06/21 07:06:59;;;;;;;1.80;1.70;;;23.10;97.60;;;;;;5113892;28;20443;-57
2021/06/21 07:09:27;;;;;;;2.13;2.03;;;23.10;97.70;;;;;;5114446;28;20478;-54
2021/06/21 07:11:53;;;;;;;2.37;2.27;;;23.10;97.70;;;;;;5114541;28;20400;-57
2021/06/21 07:14:19;;;;;;;1.80;1.80;;;22.90;97.60;;;;;;5114280;28;20399;-57
2021/06/21 07:16:46;;;;;;;1.90;1.80;;;22.90;98.10;;;;;;5113977;28;20358;-57
2021/06/21 07:19:14;;;;;;;1.90;1.80;;;22.90;97.90;;;;;;5114165;28;20671;-56
2021/06/21 07:21:40;;;;;;;2.13;1.93;;;22.90;97.70;;;;;;5113983;28;20400;-57
2021/06/21 07:24:06;;;;;;;1.80;1.70;;;23.00;97.60;;;;;;5114274;28;20510;-57
2021/06/21 07:26:32;;;;;;;2.07;1.97;;;23.10;97.50;;;;;;5113545;28;20174;-60
2021/06/21 07:28:58;;;;;;;1.70;1.60;;;23.00;97.30;;;;;;5113803;28;20819;-56
2021/06/21 07:31:23;;;;;;;1.90;1.80;;;23.10;97.10;;;;;;5114044;28;20652;-58
2021/06/21 07:33:49;;;;;;;1.97;1.87;;;23.10;96.90;;;;;;5113877;28;20166;-55
2021/06/21 07:36:15;;;;;;;1.70;1.70;;;23.10;97.00;;;;;;5113676;28;20237;-58
2021/06/21 07:38:41;;;;;;;1.70;1.60;;;23.20;97.00;;;;;;5113515;28;20189;-57
2021/06/21 07:41:07;;;;;;;1.30;1.30;;;23.00;96.50;;;;;;5113824;28;20832;-57
2021/06/21 07:43:33;;;;;;;1.20;1.20;;;23.20;96.90;;;;;;5113762;28;20491;-58
2021/06/21 07:45:58;;;;;;;1.37;1.30;;;23.20;96.80;;;;;;5113655;28;20406;-59
2021/06/21 07:48:24;;;;;;;2.23;1.57;;;23.20;96.60;;;;;;5113235;28;20614;-59
2021/06/21 07:50:49;;;;;;;1.60;1.50;;;22.90;96.10;;;;;;5113464;28;20201;-60
2021/06/21 07:53:15;;;;;;;1.73;1.73;;;22.80;96.40;;;;;;5113507;28;20169;-58
2021/06/21 07:55:42;;;;;;;1.37;1.17;;;22.90;96.60;;;;;;5113589;28;20169;-60
2021/06/21 07:58:07;;;;;;;1.20;1.20;;;22.80;96.50;;;;;;5113280;28;20319;-58
2021/06/21 08:00:36;;;;;;;2.13;2.03;;;22.60;96.40;;;;;;5113284;28;20889;-59
2021/06/21 08:03:04;;;;;;;2.07;1.97;;;22.80;96.60;;;;;;5113313;28;20177;-58
2021/06/21 08:05:30;;;;;;;1.30;1.30;;;22.90;96.40;;;;;;5113144;28;20408;-57
2021/06/21 08:07:55;;;;;;;0.90;0.90;;;22.90;95.90;;;;;;5112828;28;20458;-59
2021/06/21 08:10:21;;;;;;;1.27;1.27;;;22.90;96.20;;;;;;5113278;28;20165;-58
2021/06/21 08:12:46;;;;;;;1.10;1.10;;;22.80;95.80;;;;;;5113163;28;20245;-60
2021/06/21 08:15:13;;;;;;;0.87;0.87;;;22.50;96.30;;;;;;5113152;28;20198;-57
2021/06/21 08:17:41;;;;;;;0.90;0.90;;;22.50;96.20;;;;;;5112690;28;20184;-59
2021/06/21 08:20:09;;;;;;;1.20;1.03;;;22.70;96.00;;;;;;5112934;28;20407;-59
2021/06/21 08:22:35;;;;;;;1.00;1.00;;;22.90;95.80;;;;;;5113007;28;20408;-59
2021/06/21 08:25:01;;;;;;;0.90;0.90;;;23.00;95.70;;;;;;5113082;28;20407;-59
2021/06/21 08:27:28;;;;;;;1.10;1.10;;;23.00;95.40;;;;;;5112618;28;20570;-60
2021/06/21 08:29:53;;;;;;;1.40;1.30;;;22.90;95.00;;;;;;5113036;28;20626;-56
2021/06/21 08:32:19;;;;;;;3.47;1.10;;;22.60;95.20;;;;;;5112717;28;20453;-54
2021/06/21 08:34:45;;;;;;;0.77;0.77;;;22.80;95.40;;;;;;5112991;28;20173;-54
2021/06/21 08:37:10;;;;;;;1.07;1.00;;;22.90;95.30;;;;;;5112408;28;20512;-55
2021/06/21 08:39:38;;;;;;;1.17;1.17;;;23.00;95.30;;;;;;5112183;28;20162;-56
2021/06/21 08:42:05;;;;;;;2.20;1.20;;;22.50;95.00;;;;;;5112613;28;20190;-57
2021/06/21 08:44:33;;;;;;;1.33;1.17;;;22.80;95.30;;;;;;5112562;28;20403;-56
2021/06/21 08:47:00;;;;;;;1.10;1.00;;;22.70;95.10;;;;;;5111958;28;20453;-55
2021/06/21 08:49:27;;;;;;;1.00;1.00;;;22.50;95.40;;;;;;5112530;28;20400;-56
2021/06/21 08:51:53;;;;;;;1.10;1.10;;;22.50;95.30;;;;;;5112482;28;20400;-54
2021/06/21 08:54:19;;;;;;;1.50;1.40;;;22.60;95.20;;;;;;5112570;28;20403;-57
2021/06/21 08:56:45;;;;;;;1.10;1.03;;;22.50;95.40;;;;;;5112126;28;20452;-58
2021/06/21 08:59:10;;;;;;;1.20;1.20;;;22.30;95.20;;;;;;5112452;28;20311;-55
2021/06/21 09:01:40;;;;;;;1.20;1.20;;;22.40;95.30;;;;;;5112079;28;20208;-54
2021/06/21 09:04:08;;;;;;;1.00;1.00;;;22.60;95.30;;;;;;5112273;28;20169;-57
2021/06/21 09:06:36;;;;;;;1.47;1.37;;;22.70;95.30;;;;;;5112141;28;20408;-54
2021/06/21 09:09:03;;;;;;;1.23;1.20;;;22.80;95.00;;;;;;5112252;28;20510;-57
2021/06/21 09:11:49;;;;;;;1.00;1.00;;;23.20;94.90;;;;;;5112281;28;20431;-56
2021/06/21 09:14:30;;;;;;;1.27;1.27;;;23.40;94.40;;;;;;5098222;28;20483;-58
2021/06/21 09:16:55;;;;;;;1.47;1.20;;;23.30;94.30;;;;;;5112076;28;20419;-57
2021/06/21 09:19:21;;;;;;;1.33;1.33;;;23.50;94.20;;;;;;5112108;28;20920;-61
2021/06/21 09:21:47;;;;;;;1.67;1.63;;;23.50;94.50;;;;;;5112236;28;20166;-62
2021/06/21 09:24:22;;;;;;;1.50;1.40;;;23.30;94.50;;;;;;5112806;28;20200;-62
2021/06/21 09:26:49;;;;;;;1.67;1.57;;;23.50;94.60;;;;;;5111759;28;20214;-64
2021/06/21 09:29:15;;;;;;;1.80;1.70;;;23.60;94.30;;;;;;5112053;28;20507;-63
2021/06/21 09:31:51;;;;;;;2.53;1.33;;;23.60;93.60;;;;;;5112125;28;20399;-61
2021/06/21 09:34:19;;;;;;;1.30;1.20;;;23.60;94.30;;;;;;5112119;28;20438;-58
2021/06/21 09:36:44;;;;;;;9.10;1.80;;;23.70;94.20;;;;;;5111639;28;20400;-56
2021/06/21 09:39:26;;;;;;;1.97;1.87;;;23.50;94.30;;;;;;5111827;28;20495;-60
2021/06/21 09:42:19;;;;;;;1.80;1.70;;;23.50;94.90;;;;;;5112008;28;20668;-58
2021/06/21 09:45:00;;;;;;;2.60;2.40;;;23.60;94.40;;;;;;5111924;28;20399;-61
2021/06/21 09:47:30;;;;;;;1.20;1.17;;;23.50;93.80;;;;;;5111394;28;20534;-62
2021/06/21 09:50:04;;;;;;;2.03;1.93;;;23.40;94.30;;;;;;5111997;28;20404;-58
2021/06/21 09:52:35;;;;;;;4.67;1.10;;;23.30;93.90;;;;;;5114118;28;20398;-60
2021/06/21 09:55:09;;;;;;;1.90;1.80;;;23.20;94.70;;;;;;5115886;28;20901;-58
2021/06/21 09:57:36;;;;;;;3.30;3.10;;;23.30;94.80;;;;;;5115419;28;20417;-60
2021/06/21 10:00:08;;;;;;;1.63;1.53;;;23.30;94.40;;;;;;5115711;28;20748;-54
2021/06/21 10:02:33;;;;;;;1.43;1.33;;;22.90;94.70;;;;;;5115611;27;20424;-57
2021/06/21 10:04:59;;;;;;;1.67;1.60;;;23.10;95.00;;;;;;5115694;28;20904;-60
2021/06/21 10:07:36;;;;;;;1.13;1.03;;;23.10;94.60;;;;;;5115240;28;20575;-59
2021/06/21 10:10:08;;;;;;;1.80;1.70;;;23.00;94.50;;;;;;5115715;28;20157;-60
2021/06/21 10:12:33;;;;;;;1.40;1.40;;;22.80;94.70;;;;;;5115351;28;20907;-60
2021/06/21 10:14:59;;;;;;;1.87;1.77;;;23.00;95.00;;;;;;5115515;28;20425;-59
2021/06/21 10:17:26;;;;;;;1.73;1.63;;;22.60;95.00;;;;;;5115037;28;20197;-54
2021/06/21 10:19:53;;;;;;;1.53;1.47;;;22.90;94.80;;;;;;5115398;28;20173;-60
2021/06/21 10:22:21;;;;;;;1.30;1.30;;;23.10;94.60;;;;;;5115329;28;20945;-58
2021/06/21 10:24:51;;;;;;;1.63;1.10;;;23.00;94.50;;;;;;5115693;28;20787;-57
2021/06/21 10:27:19;;;;;;;1.60;1.50;;;23.10;94.40;;;;;;5113542;28;20455;-57
2021/06/21 10:29:46;;;;;;;1.33;1.33;;;23.20;94.10;;;;;;5115205;28;20400;-55
2021/06/21 10:32:13;;;;;;;1.50;1.40;;;23.30;94.10;;;;;;5115107;28;20464;-57
2021/06/21 10:34:40;;;;;;;2.70;2.60;;;23.20;94.30;;;;;;5115047;28;20407;-60
2021/06/21 10:37:14;;;;;;;1.37;1.37;;;23.10;94.20;;;;;;5114707;28;20503;-58
2021/06/21 10:39:51;;;;;;;1.33;1.30;;;23.10;94.20;;;;;;5114988;28;20435;-60
2021/06/21 10:42:22;;;;;;;3.40;3.20;;;23.00;94.40;;;;;;5115029;28;20494;-60
2021/06/21 10:44:55;;;;;;;1.17;1.17;;;23.00;94.40;;;;;;5114850;28;20400;-57
2021/06/21 10:47:24;;;;;;;2.10;2.00;;;23.00;94.30;;;;;;5114456;28;20804;-59
2021/06/21 10:50:04;;;;;;;1.57;1.53;;;23.10;94.20;;;;;;5114763;28;20448;-58
2021/06/21 10:52:34;;;;;;;1.37;1.37;;;22.90;93.90;;;;;;5114855;28;20773;-58
2021/06/21 10:55:26;;;;;;;1.87;1.77;;;23.00;94.10;;;;;;5114848;28;20420;-53
2021/06/21 10:58:00;;;;;;;1.70;1.70;;;23.10;94.00;;;;;;5114283;28;20415;-59
2021/06/21 11:00:34;;;;;;;1.33;1.33;;;23.20;93.80;;;;;;5114298;28;20918;-58
2021/06/21 11:03:23;;;;;;;2.20;2.10;;;23.30;93.80;;;;;;5114185;28;20414;-58
2021/06/21 11:05:54;;;;;;;2.10;2.00;;;23.20;93.70;;;;;;5102086;28;20442;-60
2021/06/21 11:08:22;;;;;;;1.93;1.83;;;22.80;93.80;;;;;;5114074;28;20443;-57
2021/06/21 11:10:56;;;;;;;1.47;1.47;;;22.90;94.20;;;;;;5114240;28;20820;-56
2021/06/21 11:13:34;;;;;;;3.10;2.93;;;23.00;94.00;;;;;;5114343;28;20396;-55
2021/06/21 11:16:19;;;;;;;4.67;4.37;;;22.90;94.40;;;;;;5114302;28;20786;-57
2021/06/21 11:18:46;;;;;;;2.53;2.43;;;22.50;94.10;;;;;;5113962;28;20427;-57
2021/06/21 11:21:23;;;;;;;2.70;2.60;;;22.30;94.50;;;;;;5114580;28;20404;-57
2021/06/21 11:23:50;;;;;;;1.80;1.70;;;22.30;94.40;;;;;;5114354;28;20453;-55
2021/06/21 11:26:16;;;;;;;2.30;2.10;;;22.20;94.90;;;;;;5114107;28;20406;-59
2021/06/21 11:28:47;;;;;;;2.13;2.03;;;22.20;95.10;;;;;;5113622;28;20447;-57
2021/06/21 11:31:21;;;;;;;4.10;3.90;;;22.40;94.70;;;;;;5113964;28;20168;-56
2021/06/21 11:33:58;;;;;;;1.83;1.77;;;22.40;95.00;;;;;;5113870;28;20399;-56
2021/06/21 11:36:47;;;;;;;2.03;1.93;;;22.20;95.10;;;;;;5113765;28;20399;-60
2021/06/21 11:39:19;;;;;;;2.60;2.50;;;22.40;95.10;;;;;;5113877;28;20419;-56
2021/06/21 11:42:14;;;;;;;2.00;1.90;;;22.30;95.20;;;;;;5113856;28;20408;-59
2021/06/21 11:44:40;;;;;;;2.70;2.60;;;22.20;94.90;;;;;;5096338;28;20816;-57
2021/06/21 11:47:14;;;;;;;3.67;3.47;;;22.20;94.80;;;;;;5113283;28;20487;-57
2021/06/21 11:49:44;;;;;;;3.63;3.33;;;22.10;94.50;;;;;;5112562;28;20521;-54
2021/06/21 11:52:10;;;;;;;3.70;3.50;;;21.90;95.00;;;;;;5113642;28;20482;-58
2021/06/21 11:54:41;;;;;;;3.13;2.93;;;21.70;95.30;;;;;;5113415;28;20443;-63
2021/06/21 11:57:08;;;;;;;3.60;3.40;;;21.70;96.10;;;;;;5113121;28;20400;-65
2021/06/21 11:59:42;;;;;;;5.00;4.70;;;21.70;96.90;;;;;;5113457;28;20770;-64
2021/06/21 12:02:19;;;;;;;4.10;3.90;;;21.50;96.70;;;;;;5113365;28;20420;-63
2021/06/21 12:04:46;;;;;;;3.70;3.50;;;21.40;97.70;;;;;;5113347;28;20414;-65
2021/06/21 12:07:33;;;;;;;3.10;3.00;;;21.40;97.60;;;;;;5111443;28;20511;-64
2021/06/21 12:10:01;;;;;;;4.00;3.80;;;21.30;98.10;;;;;;5113326;28;20399;-63
2021/06/21 12:12:33;;;;;;;3.30;3.10;;;21.00;96.90;;;;;;5113258;28;20415;-63
2021/06/21 12:15:00;;;;;;;4.40;3.60;;;20.80;98.20;;;;;;5112306;28;20400;-63
2021/06/21 12:17:27;;;;;;;3.37;3.17;;;20.70;98.80;;;;;;5112655;28;20480;-64
2021/06/21 12:20:19;;;;;;;3.63;3.43;;;20.60;98.70;;;;;;5113099;28;20895;-63
2021/06/21 12:22:56;;;;;;;3.47;3.27;;;20.70;99.60;;;;;;5113032;28;20399;-64
2021/06/21 12:25:26;;;;;;;3.43;3.23;;;20.80;99.50;;;;;;5113023;28;20490;-64
2021/06/21 12:27:52;;;;;;;3.13;3.03;;;20.80;98.70;;;;;;5112243;28;20488;-64
2021/06/21 12:30:57;;;;;;;4.03;3.73;;;20.90;98.30;;;;;;5112812;28;20835;-64
2021/06/21 12:33:42;;;;;;;3.50;3.30;;;20.90;97.20;;;;;;5102045;28;20814;-63
2021/06/21 12:36:26;;;;;;;3.40;3.20;;;20.80;98.10;;;;;;5112700;28;20915;-64
2021/06/21 12:38:52;;;;;;;3.47;3.27;;;20.70;98.20;;;;;;5112671;28;20432;-62
2021/06/21 12:41:19;;;;;;;3.00;2.80;;;20.70;99.00;;;;;;5112657;28;20923;-61
2021/06/21 12:43:52;;;;;;;3.27;3.00;;;20.70;99.20;;;;;;5112583;28;20818;-62
2021/06/21 12:46:20;;;;;;;4.70;4.40;;;20.60;98.40;;;;;;5112586;28;20487;-62
2021/06/21 12:48:45;;;;;;;4.20;4.00;;;20.50;99.20;;;;;;5112023;28;20542;-62
2021/06/21 12:51:12;;;;;;;4.37;4.10;;;20.30;99.20;;;;;;5112538;28;20431;-63
2021/06/21 12:53:43;;;;;;;4.00;3.80;;;20.30;99.60;;;;;;5112455;28;20396;-63
2021/06/21 12:56:28;;;;;;;4.07;3.87;;;20.50;99.90;;;;;;5112458;28;20396;-66